AirNav   Air Wisconsin Up To $57,000 Bonus
 
 1845 users online  

5M4 Fordyce Municipal Airport
Fordyce, Arkansas, USA

GOING TO FORDYCE?


FAA INFORMATION EFFECTIVE 26 JANUARY 2023

Location

FAA Identifier: 5M4
Lat/Long: 33-50-44.8520N 092-21-55.9040W
33-50.747533N 092-21.931733W
33.8457922,-92.3655289
(estimated)
Elevation: 193 ft. / 59 m (estimated)
Variation: 04E (1985)
From city: 3 miles NE of FORDYCE, AR
Time zone: UTC -6 (UTC -5 during Daylight Saving Time)
Zip code: 71742

Airport Operations

Airport use: Open to the public
Activation date: 03/1967
Control tower: no
ARTCC: MEMPHIS CENTER
FSS: JONESBORO FLIGHT SERVICE STATION
NOTAMs facility: JBR (NOTAM-D service available)
Attendance: UNATNDD
Wind indicator: lighted
Segmented circle: yes
Lights: RWY 05/23 MIRL OPRS DUSK-0100.
Beacon: white-green (lighted land airport)
BCN OPRS DUSK-0100.

Airport Communications

CTAF: 122.9

Nearby radio navigation aids

VOR radial/distance  VOR name  Freq  Var
PBFr218/32.5PINE BLUFF VOR/DME116.0004E

Airport Services

Fuel available: 100LL
100LL:FUEL AVBL 24 HR SELF SERVICE WITH CREDIT CARD.
Parking: tiedowns
Airframe service: NONE
Powerplant service: NONE
Bottled oxygen: NONE
Bulk oxygen: NONE

Runway Information

Runway 5/23

Dimensions: 3183 x 60 ft. / 970 x 18 m
Surface: asphalt, in good condition
Weight bearing capacity: 
Single wheel: 4.0
Runway edge lights: medium intensity
RUNWAY 5  RUNWAY 23
Latitude: 33-50.571450N33-50.923550N
Longitude: 092-22.164883W092-21.698600W
Elevation: 193.0 ft.186.0 ft.
Traffic pattern: leftleft
Runway heading: 044 magnetic, 048 true224 magnetic, 228 true
Markings: nonprecision, in good conditionnonprecision, in good condition
Obstructions: 60 ft. trees, 1100 ft. from runway, 15:1 slope to clear65 ft. trees, 850 ft. from runway, 315 ft. right of centerline, 10:1 slope to clear

Airport Ownership and Management from official FAA records

Ownership: Publicly-owned
Owner: CITY OF FORDYCE
101 SOUTH MAIN
FORDYCE, AR 71742
Phone 870-352-2198
Manager: JAMES H SMITH
PO BOX 132
FORDYCE, AR 71742
Phone 870-313-2870

Airport Operational Statistics

Aircraft based on the field: 2
Single engine airplanes: 2
    
Aircraft operations: avg 90/week *
85% local general aviation
15% transient general aviation
* for 12-month period ending 31 August 2021

Additional Remarks

DEER & MIGRATORY BIRDS ON & INVOF ARPT.
FOR CD CTC MEMPHIS ARTCC AT 901-368-8453/8449.

Instrument Procedures

There are no published instrument procedures at 5M4.

Some nearby airports with instrument procedures:

3M9 - Warren Municipal Airport (22 nm SE)
KCDH - Harrell Field Airport (24 nm SW)
9M8 - Sheridan-Grant County Regional Airport (29 nm N)
KPBF - Pinebluff Regional Airport/Grider Field (29 nm NE)
KLLQ - Monticello Municipal Airport/Ellis Field (33 nm E)
 
Loc | Ops | Rwys | IFR | FBO | Links
Com | Nav | Svcs | Stats | Notes
Area around 5M4 (Fordyce Municipal Airport)
 
Road maps at: MapQuest Bing Google
 
Aerial photo
WARNING: Photo may not be current or correct
Aerial photo of 5M4 (Fordyce Municipal Airport)
Photo courtesy of the Arkansas Department of Aeronautics
Taken in the Spring of 2007

Do you have a better or more recent aerial photo of Fordyce Municipal Airport that you would like to share? If so, please send us your photo.

 
Sectional chart

 
Airport distance calculator
Flying to Fordyce Municipal Airport? Find the distance to fly.

From to 5M4

Sunrise and sunset
Times for 06-Feb-2023
 Local
(UTC-6)
 Zulu
(UTC)
Morning civil twilight06:3712:37
Sunrise07:0313:03
Sunset17:4423:44
Evening civil twilight18:1000:10

Current date and time
Zulu (UTC)  06-Feb-2023 17:02:40
Local (UTC-6)  06-Feb-2023 11:02:40
 
METAR
KCDH 
24nm SW 
061655Z AUTO 17009KT 10SM FEW050 16/14 A3015 RMK AO2
KPBF 
30nm NE 
061653Z AUTO 14008KT 10SM CLR 17/12 A3016 RMK AO2 SLP212 T01720122
KLLQ 
33nm E 
061653Z AUTO 15006KT 10SM BKN041 17/12 A3018 RMK AO2 SLP218 T01720122
KADF 
38nm NW 
061656Z AUTO VRB04KT 10SM FEW011 SCT044 BKN055 17/13 A3014 RMK AO2 SLPNO T01670133
KELD 
44nm SW 
061653Z AUTO 17007KT 10SM FEW036 BKN046 16/13 A3016 RMK AO2 SLP211 T01610128
KSUZ 
45nm N 
061655Z AUTO 18011KT 9SM FEW015 SCT041 SCT050 16/15 A3013 RMK A01
TAF
KPBF 
30nm NE 
061121Z 0612/0712 VRB03KT 5SM BR SCT015 OVC060 TEMPO 0612/0615 1/2SM FG VV002 FM061600 17009KT 5SM BR BKN025 OVC035 FM062000 17012G18KT P6SM SCT020 BKN050 OVC250 FM070600 18007KT P6SM OVC150
KLLQ 
33nm E 
061607Z 0616/0712 VRB04KT P6SM BKN040 FM061900 18010G18KT P6SM SCT030 BKN050 OVC250 FM070600 18006KT P6SM OVC250
NOTAMs
Click for the latest NOTAMs
NOTAMs are issued by the DoD/FAA and will open in a separate window not controlled by AirNav.

 

 
 

FBO, Fuel Providers, and Aircraft Ground Support

  
 Business Name 
 
 Contact 
 
 Services / Description 
 
Fuel Prices
 
Comments
  
H.L. Hopkins-Fordyce Municipal Airport 870-352-2419
no information available

If you are affiliated with H.L. Hopkins-Fordyce Municipal Airport and would like to show here your services, contact info, web link, logo, and more, click here
no prices available
 
   write
Update Fuel Prices
 

Would you like to see your business listed on this page?

 If your business provides an interesting product or service to pilots, flight crews, aircraft, or users of the Fordyce Municipal Airport, you should consider listing it here.  To start the listing process, click on the button below
 
Add a business
 

Other Pages about Fordyce Municipal Airport

Update a link
 
Copyright © AirNav, LLC. All rights reserved. Privacy Policy  Contact